Time;durP1;ratioP1;P1;durP2;ratioP2;P2;SDS_P1;SDS_P2;PMS_P1;PMS_P2;Temp;Humidity;BMP_temperature;BMP_pressure;BME280_temperature;BME280_humidity;BME280_pressure;Samples;Min_cycle;Max_cycle;Signal;HPM_P1;HPM_P2
2023/11/16 00:02:30;;;;;;;6.72;3.10;;;8.30;44.80;;;;;;7376609;19;20011;-72
2023/11/16 00:05:02;;;;;;;5.35;2.70;;;8.20;51.40;;;;;;7374911;19;20017;-74
2023/11/16 00:07:33;;;;;;;4.20;2.35;;;8.20;59.90;;;;;;7373261;19;20015;-72
2023/11/16 00:10:03;;;;;;;8.52;2.70;;;8.20;63.90;;;;;;7373858;19;20477;-72
2023/11/16 00:12:34;;;;;;;2.90;2.15;;;8.20;68.40;;;;;;7376745;19;20474;-72
2023/11/16 00:15:08;;;;;;;4.93;3.00;;;8.30;68.60;;;;;;7372345;19;20002;-72
2023/11/16 00:17:39;;;;;;;7.45;3.15;;;8.20;66.90;;;;;;7375292;19;20375;-72
2023/11/16 00:20:11;;;;;;;7.45;2.85;;;8.30;73.00;;;;;;7375882;19;20015;-73
2023/11/16 00:22:42;;;;;;;6.35;2.58;;;8.30;69.30;;;;;;7373226;19;20078;-73
2023/11/16 00:25:13;;;;;;;7.03;3.10;;;8.30;64.40;;;;;;7372919;19;20010;-73
2023/11/16 00:27:43;;;;;;;4.63;1.90;;;8.30;65.40;;;;;;7373761;19;20022;-72
2023/11/16 00:30:16;;;;;;;5.38;2.00;;;8.30;60.60;;;;;;7374472;19;20021;-72
2023/11/16 00:32:46;;;;;;;7.05;2.53;;;8.30;57.00;;;;;;7374197;19;20024;-72
2023/11/16 00:35:19;;;;;;;6.47;2.40;;;8.30;58.40;;;;;;7374469;19;20011;-72
2023/11/16 00:37:53;;;;;;;8.25;2.05;;;8.30;60.10;;;;;;7377735;19;20867;-73
2023/11/16 00:40:24;;;;;;;6.00;2.10;;;8.20;67.10;;;;;;7374782;19;20065;-73
2023/11/16 00:42:54;;;;;;;5.25;2.03;;;8.20;64.30;;;;;;7374924;19;20018;-74
2023/11/16 00:45:27;;;;;;;5.30;1.88;;;8.20;66.90;;;;;;7378714;19;20359;-72
2023/11/16 00:47:57;;;;;;;5.30;2.00;;;8.30;67.20;;;;;;7380947;19;20065;-72
2023/11/16 00:50:27;;;;;;;5.63;2.17;;;8.30;65.90;;;;;;7381317;19;20047;-72
2023/11/16 00:52:57;;;;;;;6.47;1.90;;;8.30;62.30;;;;;;7381796;19;20460;-73
2023/11/16 00:55:27;;;;;;;4.05;1.80;;;8.30;62.60;;;;;;7380919;19;20002;-72
2023/11/16 00:57:57;;;;;;;6.05;2.17;;;8.40;60.80;;;;;;7382766;19;20006;-72
2023/11/16 01:00:31;;;;;;;5.55;1.85;;;8.40;52.30;;;;;;7381908;19;20045;-72
2023/11/16 01:03:03;;;;;;;7.93;2.58;;;8.40;46.20;;;;;;7380843;19;20334;-72
2023/11/16 01:05:33;;;;;;;7.15;2.45;;;8.50;46.10;;;;;;7380840;19;20022;-71
2023/11/16 01:08:09;;;;;;;5.53;2.10;;;8.40;46.90;;;;;;7379862;19;20037;-72
2023/11/16 01:10:43;;;;;;;5.30;2.00;;;8.40;47.60;;;;;;7382042;19;20007;-72
2023/11/16 01:13:20;;;;;;;6.40;2.40;;;8.40;53.80;;;;;;7379174;19;20376;-72
2023/11/16 01:15:57;;;;;;;4.43;2.22;;;8.40;63.10;;;;;;7379125;19;20014;-72
2023/11/16 01:18:27;;;;;;;7.15;2.33;;;8.40;66.40;;;;;;7381351;19;20023;-72
2023/11/16 01:20:58;;;;;;;8.48;2.95;;;8.40;73.10;;;;;;7380993;19;20388;-72
2023/11/16 01:23:28;;;;;;;4.40;2.25;;;8.40;83.50;;;;;;7380070;19;20015;-72
2023/11/16 01:25:58;;;;;;;4.57;2.25;;;8.30;90.40;;;;;;7380734;19;20074;-72
2023/11/16 01:28:29;;;;;;;5.82;2.67;;;8.20;97.10;;;;;;7380492;19;20549;-72
2023/11/16 01:31:03;;;;;;;9.18;2.70;;;8.30;99.90;;;;;;7380009;19;20037;-71
2023/11/16 01:33:33;;;;;;;7.65;2.90;;;8.30;99.90;;;;;;7379660;19;20022;-73
2023/11/16 01:36:03;;;;;;;4.95;2.45;;;8.30;99.90;;;;;;7378414;19;20022;-73
2023/11/16 01:38:33;;;;;;;8.02;3.10;;;8.30;99.90;;;;;;7379709;19;20550;-72
2023/11/16 01:41:03;;;;;;;4.90;2.28;;;8.30;99.90;;;;;;7379921;19;20023;-73
2023/11/16 01:43:34;;;;;;;6.57;2.30;;;8.30;99.90;;;;;;7379377;19;20030;-72
2023/11/16 01:46:09;;;;;;;8.07;2.83;;;8.20;99.90;;;;;;7379595;19;20010;-72
2023/11/16 01:48:42;;;;;;;5.68;2.63;;;8.20;99.90;;;;;;7379803;19;20011;-73
2023/11/16 01:51:16;;;;;;;5.68;2.75;;;8.20;99.90;;;;;;7379966;19;20040;-72
2023/11/16 01:53:50;;;;;;;7.53;2.92;;;8.10;99.90;;;;;;7377737;19;20014;-73
2023/11/16 01:56:23;;;;;;;6.13;2.67;;;8.10;99.90;;;;;;7378919;19;20078;-72
2023/11/16 01:58:54;;;;;;;7.30;2.30;;;8.10;99.90;;;;;;7379008;19;20085;-73
2023/11/16 02:01:29;;;;;;;5.45;2.50;;;8.10;99.90;;;;;;7378495;19;20010;-72
2023/11/16 02:04:04;;;;;;;;;;;8.10;99.90;;;;;;7379465;19;20562;-72
2023/11/16 02:06:41;;;;;;;8.20;3.65;;;8.10;99.90;;;;;;7379609;19;19918;-72
2023/11/16 02:09:12;;;;;;;7.28;2.70;;;8.00;99.90;;;;;;7378547;19;20011;-72
2023/11/16 02:11:42;;;;;;;8.65;2.38;;;7.90;99.90;;;;;;7378520;19;20039;-72
2023/11/16 02:14:13;;;;;;;5.28;2.47;;;7.90;99.90;;;;;;7377440;19;20007;-72
2023/11/16 02:16:46;;;;;;;8.02;2.85;;;7.90;99.90;;;;;;7378557;19;20019;-72
2023/11/16 02:19:30;;;;;;;6.93;2.83;;;7.90;99.90;;;;;;7379240;19;20062;-73
2023/11/16 02:22:02;;;;;;;3.72;2.45;;;8.00;99.90;;;;;;7073053;19;2004069;-72
2023/11/16 02:24:35;;;;;;;6.20;2.85;;;8.00;99.90;;;;;;7376877;19;20014;-72
2023/11/16 02:27:05;;;;;;;5.90;2.58;;;8.00;99.90;;;;;;7377724;19;20014;-72
2023/11/16 02:29:35;;;;;;;5.38;2.92;;;8.10;99.90;;;;;;7378893;19;20014;-73
2023/11/16 02:32:06;;;;;;;5.65;3.00;;;8.10;99.90;;;;;;7378337;19;20014;-73
2023/11/16 02:34:37;;;;;;;7.82;2.95;;;8.10;99.90;;;;;;7377166;19;20021;-72
2023/11/16 02:37:07;;;;;;;5.50;2.78;;;8.10;99.90;;;;;;7378868;19;20025;-72
2023/11/16 02:39:39;;;;;;;8.35;3.03;;;8.10;99.90;;;;;;7377667;19;20011;-72
2023/11/16 02:42:10;;;;;;;7.05;3.05;;;8.10;99.90;;;;;;7378541;19;20072;-72
2023/11/16 02:44:42;;;;;;;6.10;2.85;;;8.10;99.90;;;;;;7377148;19;20043;-72
2023/11/16 02:47:12;;;;;;;5.82;2.35;;;8.10;99.90;;;;;;7377622;19;20605;-72
2023/11/16 02:49:42;;;;;;;9.35;2.60;;;8.00;99.90;;;;;;7377981;19;20013;-72
2023/11/16 02:52:12;;;;;;;10.38;2.35;;;8.00;99.90;;;;;;7377780;19;20006;-71
2023/11/16 02:54:47;;;;;;;5.93;2.70;;;8.00;99.90;;;;;;7376907;19;20022;-72
2023/11/16 02:57:20;;;;;;;4.97;2.45;;;8.00;99.90;;;;;;7377473;19;20037;-71
2023/11/16 02:59:50;;;;;;;4.38;2.20;;;8.00;99.90;;;;;;7375919;19;20031;-72
2023/11/16 03:02:21;;;;;;;7.78;2.90;;;8.00;99.90;;;;;;7376759;19;19999;-72
2023/11/16 03:04:51;;;;;;;7.95;2.03;;;8.00;99.90;;;;;;7374342;19;20036;-73
2023/11/16 03:07:21;;;;;;;3.55;2.05;;;8.00;99.90;;;;;;7375743;19;20010;-72
2023/11/16 03:10:07;;;;;;;8.25;2.90;;;8.00;99.90;;;;;;7377104;19;20475;-72
2023/11/16 03:12:37;;;;;;;4.18;2.50;;;8.00;99.90;;;;;;7376499;19;20014;-73
2023/11/16 03:15:09;;;;;;;5.90;2.10;;;7.90;99.90;;;;;;7378903;19;20094;-72
2023/11/16 03:17:43;;;;;;;8.27;2.50;;;7.90;99.90;;;;;;7380858;19;19998;-73
2023/11/16 03:20:16;;;;;;;7.32;2.70;;;7.90;99.90;;;;;;7377990;19;20018;-72
2023/11/16 03:22:47;;;;;;;5.30;2.25;;;7.90;99.90;;;;;;7371408;19;20412;-73
2023/11/16 03:25:20;;;;;;;4.22;2.30;;;7.90;99.90;;;;;;7377035;19;20471;-74
2023/11/16 03:27:51;;;;;;;5.03;2.00;;;7.90;99.90;;;;;;7376917;19;20018;-73
2023/11/16 03:30:22;;;;;;;7.47;2.88;;;7.90;99.90;;;;;;7376014;19;20113;-73
2023/11/16 03:32:52;;;;;;;4.45;2.03;;;7.90;99.90;;;;;;7373890;19;20566;-73
2023/11/16 03:35:22;;;;;;;5.18;2.55;;;7.90;99.90;;;;;;7374347;19;20506;-73
2023/11/16 03:37:53;;;;;;;5.30;1.95;;;7.90;99.90;;;;;;7375966;19;20043;-73
2023/11/16 03:40:25;;;;;;;5.07;1.98;;;7.90;99.90;;;;;;7376981;19;20018;-73
2023/11/16 03:42:55;;;;;;;4.68;2.30;;;7.90;99.90;;;;;;7376276;19;20026;-73
2023/11/16 03:45:26;;;;;;;5.07;2.08;;;7.90;99.90;;;;;;7375863;19;20011;-72
2023/11/16 03:47:56;;;;;;;7.28;2.30;;;7.90;99.90;;;;;;7375939;19;20085;-73
2023/11/16 03:50:26;;;;;;;6.00;2.17;;;7.90;99.90;;;;;;7375670;19;20471;-73
2023/11/16 03:52:56;;;;;;;4.65;2.10;;;7.90;99.90;;;;;;7375896;19;20006;-73
2023/11/16 03:55:29;;;;;;;4.20;1.83;;;7.80;99.90;;;;;;7374665;19;20487;-73
2023/11/16 03:57:59;;;;;;;3.63;1.85;;;7.70;99.90;;;;;;7376952;19;20011;-73
2023/11/16 04:00:30;;;;;;;3.60;2.00;;;7.60;99.90;;;;;;7374174;19;20029;-73
2023/11/16 04:03:03;;;;;;;8.80;3.00;;;7.60;99.90;;;;;;7373979;19;20028;-73
2023/11/16 04:05:33;;;;;;;4.45;1.88;;;7.60;99.90;;;;;;7373643;19;20081;-73
2023/11/16 04:08:03;;;;;;;8.20;2.60;;;7.60;99.90;;;;;;7374386;19;20576;-73
2023/11/16 04:10:33;;;;;;;7.35;2.30;;;7.70;99.90;;;;;;7375709;19;20535;-72
2023/11/16 04:13:05;;;;;;;5.03;1.90;;;7.70;99.90;;;;;;7375120;19;20010;-72
2023/11/16 04:15:35;;;;;;;6.88;2.33;;;7.70;99.90;;;;;;7372326;19;20014;-72
2023/11/16 04:18:07;;;;;;;9.23;2.53;;;7.70;99.90;;;;;;7377285;19;20022;-72
2023/11/16 04:20:37;;;;;;;5.57;2.00;;;7.70;99.90;;;;;;7382329;19;20007;-73
2023/11/16 04:23:07;;;;;;;5.22;1.80;;;7.70;99.90;;;;;;7381710;19;20015;-72
2023/11/16 04:25:41;;;;;;;4.47;1.90;;;7.60;99.90;;;;;;7381917;19;20011;-72
2023/11/16 04:28:13;;;;;;;5.68;1.83;;;7.70;99.90;;;;;;7383199;19;20017;-72
2023/11/16 04:30:43;;;;;;;4.65;1.90;;;7.60;99.90;;;;;;7380895;19;20011;-73
2023/11/16 04:33:13;;;;;;;4.28;1.80;;;7.60;99.90;;;;;;7381814;19;20014;-72
2023/11/16 04:35:43;;;;;;;5.53;2.00;;;7.60;99.90;;;;;;7379920;19;20485;-72
2023/11/16 04:38:14;;;;;;;5.55;1.75;;;7.60;99.90;;;;;;7382325;19;19998;-72
2023/11/16 04:40:47;;;;;;;6.07;2.00;;;7.60;99.90;;;;;;7382474;19;20023;-72
2023/11/16 04:43:17;;;;;;;5.60;1.85;;;7.60;99.90;;;;;;7382700;19;20109;-72
2023/11/16 04:45:50;;;;;;;4.78;2.22;;;7.60;99.90;;;;;;7379623;19;20045;-72
2023/11/16 04:48:20;;;;;;;5.32;2.10;;;7.60;99.90;;;;;;7381322;19;20006;-72
2023/11/16 04:50:50;;;;;;;6.60;2.30;;;7.60;99.90;;;;;;7382913;19;20015;-72
2023/11/16 04:53:21;;;;;;;6.47;2.20;;;7.70;99.90;;;;;;7381233;19;20013;-72
2023/11/16 04:55:53;;;;;;;5.40;1.83;;;7.70;99.90;;;;;;7376207;19;20402;-73
2023/11/16 04:58:23;;;;;;;4.10;1.85;;;7.70;99.90;;;;;;7380900;19;20002;-72
2023/11/16 05:00:54;;;;;;;4.15;1.90;;;7.70;99.90;;;;;;7379914;19;20007;-72
2023/11/16 05:03:24;;;;;;;5.38;1.92;;;7.80;99.90;;;;;;7380051;19;20502;-72
2023/11/16 05:05:54;;;;;;;4.75;2.00;;;7.80;99.90;;;;;;7379098;19;20021;-72
2023/11/16 05:08:25;;;;;;;5.50;2.50;;;7.70;99.90;;;;;;7378900;19;20028;-72
2023/11/16 05:10:58;;;;;;;3.42;1.83;;;7.70;99.90;;;;;;7379315;19;20021;-72
2023/11/16 05:13:28;;;;;;;6.82;2.10;;;7.70;99.90;;;;;;7381567;19;20027;-72
2023/11/16 05:15:58;;;;;;;4.43;2.20;;;7.70;99.90;;;;;;7379836;19;20015;-72
2023/11/16 05:18:28;;;;;;;5.22;2.10;;;7.70;99.90;;;;;;7381613;19;20019;-73
2023/11/16 05:21:00;;;;;;;3.08;1.63;;;7.70;99.90;;;;;;7378922;19;20014;-72
2023/11/16 05:23:31;;;;;;;5.72;1.95;;;7.70;99.90;;;;;;7380374;19;20395;-72
2023/11/16 05:26:03;;;;;;;4.68;2.20;;;7.70;99.90;;;;;;7377912;19;20014;-72
2023/11/16 05:28:35;;;;;;;4.72;2.13;;;7.80;99.90;;;;;;7380461;19;20018;-73
2023/11/16 05:31:06;;;;;;;7.65;2.47;;;7.80;99.90;;;;;;7381554;19;20085;-72
2023/11/16 05:33:37;;;;;;;5.20;2.30;;;7.80;99.90;;;;;;7378503;19;20354;-72
2023/11/16 05:36:08;;;;;;;5.03;2.28;;;7.80;99.90;;;;;;7379243;19;20010;-74
2023/11/16 05:38:38;;;;;;;4.72;2.03;;;7.80;99.90;;;;;;7381235;19;20478;-72
2023/11/16 05:41:13;;;;;;;4.68;2.08;;;7.80;99.90;;;;;;7380430;19;20013;-72
2023/11/16 05:43:43;;;;;;;;;;;7.80;99.90;;;;;;7380981;19;20018;-73
2023/11/16 05:46:13;;;;;;;3.67;2.10;;;7.80;99.90;;;;;;7380559;19;19907;-73
2023/11/16 05:48:43;;;;;;;7.15;2.40;;;7.80;99.90;;;;;;7380780;19;20375;-72
2023/11/16 05:51:14;;;;;;;5.80;2.53;;;7.80;99.90;;;;;;7380009;19;20352;-72
2023/11/16 05:53:44;;;;;;;3.20;2.00;;;7.80;99.90;;;;;;7382801;19;20065;-72
2023/11/16 05:56:17;;;;;;;6.43;2.60;;;7.80;99.90;;;;;;7384636;19;20017;-74
2023/11/16 05:58:49;;;;;;;7.65;2.50;;;7.80;99.90;;;;;;7382225;19;20507;-72
2023/11/16 06:01:19;;;;;;;7.80;2.58;;;7.80;99.90;;;;;;7377390;19;21229;-73
2023/11/16 06:03:50;;;;;;;5.07;2.60;;;7.80;99.90;;;;;;7377448;19;20036;-73
2023/11/16 06:06:20;;;;;;;5.03;2.40;;;7.80;99.90;;;;;;7379848;19;20037;-72
2023/11/16 06:08:50;;;;;;;8.82;2.92;;;7.80;99.90;;;;;;7378646;19;20006;-73
2023/11/16 06:11:23;;;;;;;7.18;2.92;;;7.80;99.90;;;;;;7376570;19;20010;-72
2023/11/16 06:13:54;;;;;;;6.60;2.92;;;7.80;99.90;;;;;;7378025;19;20036;-74
2023/11/16 06:16:24;;;;;;;7.80;2.85;;;7.80;99.90;;;;;;7380064;19;20561;-73
2023/11/16 06:18:57;;;;;;;7.65;3.08;;;7.80;99.90;;;;;;7379656;19;20424;-73
2023/11/16 06:21:27;;;;;;;7.40;2.75;;;7.90;99.90;;;;;;7374366;19;20078;-73
2023/11/16 06:23:57;;;;;;;5.70;3.08;;;7.80;99.90;;;;;;7378770;19;20011;-73
2023/11/16 06:26:31;;;;;;;8.48;3.38;;;7.80;99.90;;;;;;7378842;19;20002;-73
2023/11/16 06:29:01;;;;;;;5.97;3.20;;;7.80;99.90;;;;;;7378460;19;20011;-73
2023/11/16 06:31:31;;;;;;;7.25;2.78;;;7.90;99.90;;;;;;7377799;19;20014;-72
2023/11/16 06:34:01;;;;;;;5.20;2.85;;;7.90;99.90;;;;;;7376287;19;20497;-73
2023/11/16 06:36:31;;;;;;;10.40;3.15;;;7.90;99.90;;;;;;7378315;19;20015;-71
2023/11/16 06:39:03;;;;;;;6.20;2.90;;;7.90;99.90;;;;;;7377818;19;20010;-71
2023/11/16 06:41:36;;;;;;;7.10;2.90;;;7.90;99.90;;;;;;7375103;19;20412;-72
2023/11/16 06:44:07;;;;;;;6.97;2.80;;;7.90;99.90;;;;;;7374934;19;20014;-71
2023/11/16 06:46:38;;;;;;;9.13;3.05;;;7.90;99.90;;;;;;7375891;19;20010;-73
2023/11/16 06:49:08;;;;;;;7.13;3.15;;;7.80;99.90;;;;;;7377582;19;20130;-73
2023/11/16 06:51:38;;;;;;;5.82;2.67;;;7.80;99.90;;;;;;7375035;19;20340;-72
2023/11/16 06:54:11;;;;;;;5.30;2.42;;;7.80;99.90;;;;;;7376527;19;20012;-73
2023/11/16 06:56:44;;;;;;;9.95;3.15;;;7.80;99.90;;;;;;7377503;19;20010;-72
2023/11/16 06:59:19;;;;;;;8.25;2.83;;;7.70;99.90;;;;;;7376993;19;20165;-72
2023/11/16 07:01:49;;;;;;;9.88;5.38;;;7.70;99.90;;;;;;7377118;19;20029;-72
2023/11/16 07:04:19;;;;;;;8.07;4.18;;;7.80;99.90;;;;;;7378900;19;20031;-72
2023/11/16 07:06:49;;;;;;;9.85;3.92;;;7.80;99.90;;;;;;7374102;19;20014;-73
2023/11/16 07:09:19;;;;;;;11.25;3.42;;;7.80;99.90;;;;;;7377525;19;20021;-73
2023/11/16 07:11:53;;;;;;;8.85;3.58;;;7.80;99.90;;;;;;7377162;19;20002;-72
2023/11/16 07:14:23;;;;;;;8.77;3.72;;;7.90;99.90;;;;;;7377329;19;20003;-72
2023/11/16 07:16:54;;;;;;;8.23;3.20;;;7.90;99.90;;;;;;7376576;19;20085;-71
2023/11/16 07:19:25;;;;;;;7.35;3.65;;;7.90;94.60;;;;;;7374088;19;20018;-72
2023/11/16 07:21:55;;;;;;;10.77;4.60;;;7.90;95.90;;;;;;7373927;19;20576;-72
2023/11/16 07:24:26;;;;;;;5.05;3.58;;;7.80;98.20;;;;;;7374628;19;20007;-72
2023/11/16 07:27:00;;;;;;;5.82;3.45;;;7.70;99.90;;;;;;7374109;19;20031;-71
2023/11/16 07:29:31;;;;;;;11.30;4.03;;;7.70;99.90;;;;;;7374852;19;20943;-72
2023/11/16 07:32:04;;;;;;;8.68;4.20;;;7.70;99.90;;;;;;7375471;19;20355;-72
2023/11/16 07:34:35;;;;;;;8.57;4.32;;;7.70;99.90;;;;;;7371847;19;20015;-70
2023/11/16 07:37:06;;;;;;;10.27;5.00;;;7.70;99.90;;;;;;7376621;19;20508;-73
2023/11/16 07:39:37;;;;;;;8.45;4.43;;;7.80;99.90;;;;;;7377877;19;20097;-73
2023/11/16 07:42:11;;;;;;;15.88;5.13;;;7.80;99.90;;;;;;7377237;19;20082;-72
2023/11/16 07:44:43;;;;;;;13.57;5.30;;;7.90;99.90;;;;;;7383028;19;20072;-73
2023/11/16 07:47:14;;;;;;;10.50;5.72;;;7.90;99.90;;;;;;7378370;19;20010;-73
2023/11/16 07:49:44;;;;;;;8.45;4.95;;;7.90;99.90;;;;;;7378128;19;20499;-72
2023/11/16 07:52:14;;;;;;;9.70;4.22;;;7.90;99.90;;;;;;7380133;19;20011;-73
2023/11/16 07:54:45;;;;;;;8.18;3.90;;;7.90;99.90;;;;;;7383329;19;20002;-71
2023/11/16 07:57:22;;;;;;;7.80;4.95;;;7.90;99.90;;;;;;7385256;19;20358;-72
2023/11/16 07:59:54;;;;;;;8.02;4.65;;;7.80;99.90;;;;;;7384993;19;20014;-72
2023/11/16 08:03:41;;;;;;;10.60;4.78;;;7.80;99.90;;;;;;7385609;19;20006;-74
2023/11/16 08:05:12;;;;;;;8.45;4.72;;;7.90;99.90;;;;;;7382863;19;20355;-73
2023/11/16 08:07:42;;;;;;;11.98;5.15;;;7.90;99.90;;;;;;7383612;19;20015;-72
2023/11/16 08:10:15;;;;;;;9.55;5.40;;;8.00;99.90;;;;;;7382947;19;20014;-71
2023/11/16 08:12:50;;;;;;;10.93;5.30;;;8.00;99.90;;;;;;7383079;19;20494;-71
2023/11/16 08:15:23;;;;;;;9.32;5.18;;;8.00;99.90;;;;;;7382415;19;20021;-72
2023/11/16 08:17:55;;;;;;;9.20;4.97;;;8.00;99.90;;;;;;7383906;19;20054;-71
2023/11/16 08:20:28;;;;;;;12.38;5.55;;;8.00;99.90;;;;;;7382715;19;20010;-72
2023/11/16 08:22:59;;;;;;;12.93;5.15;;;8.10;99.90;;;;;;7381950;19;20482;-73
2023/11/16 08:25:30;;;;;;;9.18;5.88;;;8.10;99.90;;;;;;7381571;19;20027;-72
2023/11/16 08:28:05;;;;;;;9.18;5.18;;;8.10;99.90;;;;;;7382443;19;20365;-73
2023/11/16 08:30:35;;;;;;;7.97;4.70;;;8.20;99.90;;;;;;7382709;19;20121;-73
2023/11/16 08:33:07;;;;;;;13.60;5.32;;;8.20;99.90;;;;;;7386712;19;20003;-72
2023/11/16 08:35:38;;;;;;;10.25;3.97;;;8.30;99.90;;;;;;7382257;19;20039;-72
2023/11/16 08:38:08;;;;;;;9.68;4.07;;;8.40;99.90;;;;;;7383954;19;20007;-71
2023/11/16 08:40:41;;;;;;;8.48;3.90;;;8.50;93.60;;;;;;7383678;19;20463;-71
2023/11/16 08:43:15;;;;;;;8.07;3.20;;;8.50;59.70;;;;;;7381449;19;20029;-71
2023/11/16 08:45:47;;;;;;;5.90;3.45;;;8.60;48.00;;;;;;7380779;19;20014;-72
2023/11/16 08:48:30;;;;;;;6.38;3.40;;;8.70;37.00;;;;;;7381513;19;20010;-72
2023/11/16 08:51:03;;;;;;;6.65;3.97;;;8.80;31.40;;;;;;7384074;19;20006;-72
2023/11/16 08:53:39;;;;;;;7.28;3.00;;;9.00;28.60;;;;;;7381437;19;20137;-72
2023/11/16 08:56:11;;;;;;;6.35;2.88;;;9.10;25.50;;;;;;7380208;19;20505;-72
2023/11/16 08:58:52;;;;;;;6.80;3.50;;;9.20;19.30;;;;;;7380740;19;20490;-72
2023/11/16 09:01:23;;;;;;;9.52;3.47;;;9.30;12.70;;;;;;7381697;19;20036;-73
2023/11/16 09:03:54;;;;;;;11.80;3.97;;;9.30;5.20;;;;;;7380271;19;20035;-72
2023/11/16 09:06:26;;;;;;;6.38;3.42;;;9.30;1.00;;;;;;7383051;19;20023;-72
2023/11/16 09:08:58;;;;;;;10.55;3.97;;;9.40;1.00;;;;;;7381122;19;20014;-73
2023/11/16 09:11:28;;;;;;;5.53;3.53;;;9.50;1.00;;;;;;7381419;19;20026;-73
2023/11/16 09:14:02;;;;;;;8.60;3.38;;;9.40;1.00;;;;;;7380927;19;20130;-73
2023/11/16 09:16:33;;;;;;;8.45;3.58;;;9.40;1.00;;;;;;7381548;19;23290;-73
2023/11/16 09:19:06;;;;;;;8.13;5.22;;;9.40;1.00;;;;;;7381666;19;20526;-73
2023/11/16 09:21:39;;;;;;;;;;;9.50;1.00;;;;;;7383929;19;20006;-73
2023/11/16 09:24:10;;;;;;;9.40;3.90;;;9.50;1.00;;;;;;7380619;19;20540;-72
2023/11/16 09:26:41;;;;;;;9.35;3.70;;;9.50;1.00;;;;;;7376987;19;20014;-72
2023/11/16 09:29:15;;;;;;;10.13;3.65;;;9.60;1.00;;;;;;7381386;19;20002;-73
2023/11/16 09:31:46;;;;;;;10.88;3.90;;;9.70;1.00;;;;;;7381340;19;20007;-72
2023/11/16 09:34:16;;;;;;;8.00;3.17;;;9.70;1.00;;;;;;7379838;19;20011;-73
2023/11/16 09:36:47;;;;;;;8.88;3.50;;;9.70;1.00;;;;;;7381187;19;20098;-74
2023/11/16 09:39:17;;;;;;;7.75;3.70;;;9.70;1.00;;;;;;7382260;19;20013;-72
2023/11/16 09:41:53;;;;;;;9.10;4.22;;;9.60;1.00;;;;;;7381216;19;20010;-72
2023/11/16 09:44:30;;;;;;;8.93;4.03;;;9.30;19.30;;;;;;7377218;19;20024;-72
2023/11/16 09:47:05;;;;;;;8.68;4.25;;;9.20;25.50;;;;;;7381233;19;20002;-72
2023/11/16 09:49:38;;;;;;;10.80;5.00;;;9.20;41.20;;;;;;7380859;19;20006;-72
2023/11/16 09:52:08;;;;;;;11.30;5.13;;;9.20;38.90;;;;;;7379298;19;20022;-72
2023/11/16 09:54:39;;;;;;;7.97;4.13;;;9.40;25.20;;;;;;7378571;19;20364;-72
2023/11/16 09:57:19;;;;;;;9.80;4.53;;;9.50;11.00;;;;;;7378817;19;20070;-72
2023/11/16 09:59:55;;;;;;;7.82;3.88;;;9.50;1.00;;;;;;7382403;19;20014;-73
2023/11/16 10:02:25;;;;;;;9.25;4.82;;;9.50;1.00;;;;;;7377166;19;20014;-72
2023/11/16 10:05:01;;;;;;;9.82;4.10;;;9.50;1.00;;;;;;7378035;19;20019;-72
2023/11/16 10:07:32;;;;;;;8.55;4.22;;;9.30;1.00;;;;;;7379584;19;20011;-72
2023/11/16 10:10:12;;;;;;;9.75;4.55;;;9.30;1.00;;;;;;7379195;19;20011;-72
2023/11/16 10:12:50;;;;;;;9.50;3.67;;;9.40;1.00;;;;;;7379598;19;20010;-72
2023/11/16 10:15:24;;;;;;;9.00;4.13;;;9.40;1.00;;;;;;7374120;19;20019;-72
2023/11/16 10:17:56;;;;;;;8.75;4.40;;;9.40;1.00;;;;;;7378312;19;20022;-72
2023/11/16 10:20:26;;;;;;;8.23;3.83;;;9.20;2.60;;;;;;7380552;19;20007;-73
2023/11/16 10:22:57;;;;;;;8.07;4.32;;;9.40;8.40;;;;;;7380865;19;20417;-72
2023/11/16 10:25:28;;;;;;;7.68;3.78;;;9.50;5.90;;;;;;7378185;19;20408;-72
2023/11/16 10:27:58;;;;;;;7.38;4.28;;;9.50;1.00;;;;;;7380207;19;20324;-71
2023/11/16 10:30:31;;;;;;;7.28;3.50;;;9.50;1.00;;;;;;7378998;19;20010;-71
2023/11/16 10:33:02;;;;;;;6.45;3.83;;;9.50;1.00;;;;;;7378763;19;20381;-72
2023/11/16 10:35:33;;;;;;;5.60;3.70;;;9.50;1.00;;;;;;7378024;19;20080;-72
2023/11/16 10:38:04;;;;;;;11.50;4.13;;;9.50;1.00;;;;;;7380362;19;20007;-73
2023/11/16 10:40:38;;;;;;;7.05;3.58;;;9.60;1.00;;;;;;7381352;19;20010;-72
2023/11/16 10:43:11;;;;;;;7.35;3.75;;;9.60;1.00;;;;;;7379194;19;20726;-72
2023/11/16 10:45:45;;;;;;;8.18;3.80;;;9.60;1.00;;;;;;7376429;19;20006;-73
2023/11/16 10:48:18;;;;;;;8.97;3.57;;;9.60;1.00;;;;;;7377303;19;20073;-72
2023/11/16 10:50:48;;;;;;;10.38;3.95;;;9.50;1.00;;;;;;7379062;19;20014;-73
2023/11/16 10:53:22;;;;;;;8.25;3.50;;;9.50;1.00;;;;;;7380534;19;20046;-72
2023/11/16 10:55:57;;;;;;;8.30;3.40;;;9.40;1.00;;;;;;7368855;19;20011;-72
2023/11/16 10:58:29;;;;;;;10.20;3.55;;;9.40;1.00;;;;;;7364696;19;20020;-72
2023/11/16 11:01:07;;;;;;;9.23;4.13;;;9.40;1.00;;;;;;7366723;19;20453;-72
2023/11/16 11:03:38;;;;;;;10.60;3.60;;;9.40;1.00;;;;;;7365425;19;20397;-72
2023/11/16 11:06:12;;;;;;;11.88;5.60;;;9.50;1.00;;;;;;7367071;19;20318;-73
2023/11/16 11:08:43;;;;;;;9.23;3.97;;;9.60;1.00;;;;;;7367054;19;20018;-72
2023/11/16 11:11:14;;;;;;;9.40;3.15;;;9.50;1.00;;;;;;7365118;19;20042;-72
2023/11/16 11:13:47;;;;;;;8.32;3.70;;;9.50;1.00;;;;;;7366675;19;20015;-73
2023/11/16 11:16:19;;;;;;;10.48;3.22;;;9.50;1.00;;;;;;7365925;19;20015;-72
2023/11/16 11:18:51;;;;;;;7.95;3.65;;;9.50;1.00;;;;;;7366508;19;20018;-72
2023/11/16 11:21:23;;;;;;;8.02;3.50;;;9.50;1.00;;;;;;7358886;19;20018;-72
2023/11/16 11:24:04;;;;;;;7.93;2.88;;;9.50;1.00;;;;;;7357830;19;20493;-72
2023/11/16 11:26:44;;;;;;;6.78;3.05;;;9.50;1.00;;;;;;7361390;19;20143;-72
2023/11/16 11:29:15;;;;;;;6.65;3.00;;;9.50;1.00;;;;;;7363754;19;20014;-72
2023/11/16 11:32:02;;;;;;;11.30;4.10;;;9.60;1.00;;;;;;7362698;19;20102;-73
2023/11/16 11:34:39;;;;;;;10.68;3.35;;;9.60;1.00;;;;;;6852248;19;2004815;-73
2023/11/16 11:37:14;;;;;;;7.45;3.55;;;9.60;1.00;;;;;;7362301;19;20014;-74
2023/11/16 11:39:46;;;;;;;6.07;3.10;;;9.60;1.00;;;;;;7362377;19;20086;-74
2023/11/16 11:42:18;;;;;;;4.45;2.50;;;9.70;1.00;;;;;;7362458;19;20014;-74
2023/11/16 11:44:56;;;;;;;9.05;3.42;;;9.70;1.00;;;;;;7362025;19;20011;-73
2023/11/16 11:47:29;;;;;;;7.32;2.67;;;9.80;1.00;;;;;;7361819;19;20014;-74
2023/11/16 11:50:00;;;;;;;6.82;2.67;;;9.80;1.00;;;;;;7363460;19;20006;-74
2023/11/16 11:52:31;;;;;;;7.07;2.83;;;10.00;1.00;;;;;;7360092;19;20035;-75
2023/11/16 11:55:06;;;;;;;6.63;2.67;;;10.20;1.00;;;;;;7362625;19;20017;-73
2023/11/16 11:57:37;;;;;;;7.40;2.88;;;10.10;1.00;;;;;;7362533;19;20597;-74
2023/11/16 12:00:11;;;;;;;10.70;3.22;;;10.00;1.00;;;;;;7363838;19;20015;-73
2023/11/16 12:02:48;;;;;;;6.68;4.22;;;10.00;1.00;;;;;;7359314;19;20212;-73
2023/11/16 12:05:19;;;;;;;11.52;5.03;;;9.80;1.00;;;;;;7361847;19;20022;-73
2023/11/16 12:08:00;;;;;;;8.30;4.57;;;9.70;1.00;;;;;;7360993;19;20439;-72
2023/11/16 12:10:31;;;;;;;7.80;3.72;;;9.90;1.00;;;;;;7354804;19;20015;-73
2023/11/16 12:13:03;;;;;;;8.93;4.55;;;9.90;1.00;;;;;;7362525;19;20603;-72
2023/11/16 12:15:33;;;;;;;7.68;3.72;;;10.00;1.00;;;;;;7361944;19;20022;-72
2023/11/16 12:18:10;;;;;;;10.60;5.20;;;9.90;1.00;;;;;;7363498;19;20105;-74
2023/11/16 12:20:44;;;;;;;9.23;5.25;;;9.80;1.00;;;;;;7373339;19;20017;-74
2023/11/16 12:23:14;;;;;;;10.73;5.70;;;9.90;1.00;;;;;;7362310;19;20262;-73
2023/11/16 12:25:46;;;;;;;11.55;5.57;;;9.90;1.00;;;;;;7362351;19;20069;-74
2023/11/16 12:28:17;;;;;;;11.80;5.63;;;9.90;1.00;;;;;;7362479;19;20039;-73
2023/11/16 12:30:49;;;;;;;9.55;5.28;;;9.80;1.00;;;;;;7361937;19;20368;-74
2023/11/16 12:33:23;;;;;;;11.18;5.05;;;9.60;1.00;;;;;;7362796;19;20035;-73
2023/11/16 12:35:58;;;;;;;9.73;5.45;;;9.70;1.00;;;;;;7360933;19;20031;-74
2023/11/16 12:38:30;;;;;;;12.30;4.78;;;9.70;1.00;;;;;;7359486;19;20035;-73
2023/11/16 12:41:03;;;;;;;11.13;4.82;;;9.70;1.00;;;;;;7371158;19;20111;-73
2023/11/16 12:43:33;;;;;;;8.50;4.40;;;9.60;1.00;;;;;;7370534;19;20402;-73
2023/11/16 12:46:03;;;;;;;11.80;5.47;;;9.60;1.00;;;;;;7368559;19;20015;-72
2023/11/16 12:48:36;;;;;;;8.80;5.07;;;9.50;1.00;;;;;;7371153;19;20598;-73
2023/11/16 12:51:09;;;;;;;12.52;5.07;;;9.40;1.00;;;;;;7369042;19;20786;-72
2023/11/16 12:53:42;;;;;;;10.57;5.20;;;9.40;1.00;;;;;;7369459;19;20799;-73
2023/11/16 12:56:14;;;;;;;10.10;5.35;;;9.30;1.00;;;;;;7371520;19;20169;-73
2023/11/16 12:58:45;;;;;;;9.55;6.00;;;9.30;1.00;;;;;;7371943;19;20010;-73
2023/11/16 13:01:16;;;;;;;11.82;5.32;;;9.30;1.00;;;;;;7367683;19;20576;-73
2023/11/16 13:03:49;;;;;;;10.57;5.63;;;9.30;3.60;;;;;;7371561;19;20028;-73
2023/11/16 13:06:27;;;;;;;9.73;4.65;;;9.20;1.00;;;;;;7371012;19;20030;-73
2023/11/16 13:09:04;;;;;;;12.63;5.53;;;9.20;1.00;;;;;;7364324;19;20014;-72
2023/11/16 13:11:37;;;;;;;10.85;5.30;;;9.20;1.00;;;;;;7368812;19;20017;-72
2023/11/16 13:14:07;;;;;;;9.15;5.18;;;9.20;1.00;;;;;;7366794;19;20029;-72
2023/11/16 13:16:37;;;;;;;9.32;4.78;;;9.30;4.20;;;;;;7368041;19;20002;-73
2023/11/16 13:19:11;;;;;;;10.80;5.25;;;9.30;9.40;;;;;;7369062;19;20025;-72
2023/11/16 13:21:42;;;;;;;11.45;4.85;;;9.20;2.40;;;;;;7366526;19;20011;-73
2023/11/16 13:24:15;;;;;;;14.13;5.57;;;9.10;9.20;;;;;;7369405;19;20022;-72
2023/11/16 13:26:47;;;;;;;10.70;5.53;;;9.00;18.30;;;;;;7369207;19;20031;-73